createdAt,value
2023-05-26T00:00:58.921Z,19.17
2023-05-26T00:03:31.662Z,19.15
2023-05-26T00:06:04.418Z,19.14
2023-05-26T00:08:36.915Z,19.14
2023-05-26T00:11:10.405Z,19.13
2023-05-26T00:13:43.479Z,19.13
2023-05-26T00:16:31.720Z,19.11
2023-05-26T00:19:07.016Z,19.11
2023-05-26T00:21:42.934Z,19.09
2023-05-26T00:24:21.516Z,19.09
2023-05-26T00:26:55.035Z,19.08
2023-05-26T00:29:29.739Z,19.08
2023-05-26T00:34:49.328Z,19.07
2023-05-26T00:37:23.244Z,19.05
2023-05-26T00:39:55.831Z,19.05
2023-05-26T00:42:28.441Z,19.04
2023-05-26T00:45:00.959Z,19.03
2023-05-26T00:47:42.349Z,19.03
2023-05-26T00:50:15.082Z,19.03
2023-05-26T00:52:51.136Z,19.02
2023-05-26T00:58:21.905Z,19.00
2023-05-26T01:00:54.658Z,18.99
2023-05-26T01:06:34.203Z,18.98
2023-05-26T01:09:13.229Z,18.94
2023-05-26T01:12:07.344Z,18.96
2023-05-26T01:15:04.879Z,18.94
2023-05-26T01:17:54.534Z,18.93
2023-05-26T01:20:58.548Z,18.92
2023-05-26T01:23:59.297Z,18.91
2023-05-26T01:26:40.632Z,18.90
2023-05-26T01:29:16.610Z,18.90
2023-05-26T01:31:49.697Z,18.88
2023-05-26T01:34:34.334Z,18.87
2023-05-26T01:37:07.325Z,18.87
2023-05-26T01:39:50.579Z,18.86
2023-05-26T01:42:32.015Z,18.85
2023-05-26T01:45:28.854Z,18.85
2023-05-26T01:48:03.705Z,18.83
2023-05-26T01:50:46.141Z,18.83
2023-05-26T01:53:40.792Z,18.82
2023-05-26T01:56:14.967Z,18.81
2023-05-26T01:58:48.411Z,18.81
2023-05-26T02:01:21.173Z,18.79
2023-05-26T02:03:53.778Z,18.79
2023-05-26T02:06:27.442Z,18.78
2023-05-26T02:08:59.986Z,18.78
2023-05-26T02:11:38.520Z,18.76
2023-05-26T02:14:11.031Z,18.75
2023-05-26T02:16:44.827Z,18.75
2023-05-26T02:19:17.388Z,18.73
2023-05-26T02:21:50.179Z,18.74
2023-05-26T02:24:23.175Z,18.72
2023-05-26T02:26:56.056Z,18.72
2023-05-26T02:29:28.592Z,18.72
2023-05-26T02:32:01.164Z,18.71
2023-05-26T02:34:33.926Z,18.70
2023-05-26T02:37:07.060Z,18.69
2023-05-26T02:39:39.721Z,18.68
2023-05-26T02:42:12.366Z,18.68
2023-05-26T02:44:47.697Z,18.67
2023-05-26T02:47:23.257Z,18.67
2023-05-26T02:49:55.920Z,18.65
2023-05-26T02:52:37.913Z,18.65
2023-05-26T02:55:11.615Z,18.64
2023-05-26T02:57:49.952Z,18.64
2023-05-26T03:00:22.701Z,18.63
2023-05-26T03:02:55.836Z,18.61
2023-05-26T03:05:29.968Z,18.61
2023-05-26T03:08:04.820Z,18.61
2023-05-26T03:10:37.827Z,18.59
2023-05-26T03:13:10.834Z,18.59
2023-05-26T03:15:49.728Z,18.59
2023-05-26T03:18:22.215Z,18.57
2023-05-26T03:20:55.320Z,18.57
2023-05-26T03:23:41.970Z,18.57
2023-05-26T03:26:14.862Z,18.55
2023-05-26T03:28:47.518Z,18.56
2023-05-26T03:31:28.881Z,18.54
2023-05-26T03:34:01.386Z,18.53
2023-05-26T03:36:33.922Z,18.52
2023-05-26T03:39:07.441Z,18.51
2023-05-26T03:41:40.211Z,18.51
2023-05-26T03:44:12.876Z,18.50
2023-05-26T03:49:33.168Z,18.50
2023-05-26T03:52:05.907Z,18.49
2023-05-26T03:54:38.457Z,18.48
2023-05-26T03:57:11.226Z,18.48
2023-05-26T03:59:49.192Z,18.47
2023-05-26T04:02:21.704Z,18.45
2023-05-26T04:04:54.343Z,18.45
2023-05-26T04:07:26.977Z,18.45
2023-05-26T04:09:59.749Z,18.45
2023-05-26T04:12:44.753Z,18.45
2023-05-26T04:15:17.509Z,18.44
2023-05-26T04:17:50.095Z,18.44
2023-05-26T04:20:22.745Z,18.43
2023-05-26T04:22:55.470Z,18.42
2023-05-26T04:25:29.905Z,18.42
2023-05-26T04:28:03.751Z,18.42
2023-05-26T04:30:40.581Z,18.40
2023-05-26T04:33:14.381Z,18.40
2023-05-26T04:35:47.551Z,18.40
2023-05-26T04:38:21.489Z,18.40
2023-05-26T04:41:10.238Z,18.39
2023-05-26T04:43:46.590Z,18.38
2023-05-26T04:46:19.549Z,18.37
2023-05-26T04:48:53.687Z,18.37
2023-05-26T04:51:26.269Z,18.36
2023-05-26T04:54:09.580Z,18.35
2023-05-26T04:56:42.060Z,18.35
2023-05-26T04:59:14.890Z,18.35
2023-05-26T05:01:56.603Z,18.33
2023-05-26T05:04:29.085Z,18.33
2023-05-26T05:07:01.614Z,18.33
2023-05-26T05:09:41.464Z,18.33
2023-05-26T05:12:13.968Z,18.33
2023-05-26T05:14:46.477Z,18.31
2023-05-26T05:17:19.278Z,18.32
2023-05-26T05:20:14.246Z,18.31
2023-05-26T05:22:48.284Z,18.31
2023-05-26T05:25:20.988Z,18.31
2023-05-26T05:27:53.506Z,18.30
2023-05-26T05:30:36.518Z,18.30
2023-05-26T05:33:09.436Z,18.30
2023-05-26T05:35:53.490Z,18.29
2023-05-26T05:38:26.633Z,18.28
2023-05-26T05:40:59.187Z,18.29
2023-05-26T05:43:47.578Z,18.28
2023-05-26T05:46:20.128Z,18.28
2023-05-26T05:48:52.786Z,18.28
2023-05-26T05:51:25.466Z,18.27
2023-05-26T05:53:57.949Z,18.28
2023-05-26T05:56:33.614Z,18.28
2023-05-26T05:59:06.250Z,18.27
2023-05-26T06:01:38.761Z,18.26
2023-05-26T06:04:11.580Z,18.26
2023-05-26T06:06:44.354Z,18.26
2023-05-26T06:09:16.926Z,18.26
2023-05-26T06:11:56.676Z,18.26
2023-05-26T06:14:29.216Z,18.25
2023-05-26T06:17:01.934Z,18.25
2023-05-26T06:19:40.256Z,18.25
2023-05-26T06:22:12.884Z,18.25
2023-05-26T06:24:48.176Z,18.25
2023-05-26T06:27:20.769Z,18.25
2023-05-26T06:30:01.675Z,18.25
2023-05-26T06:32:34.327Z,18.26
2023-05-26T06:35:07.423Z,18.27
2023-05-26T06:37:39.880Z,18.27
2023-05-26T06:40:13.018Z,18.26
2023-05-26T06:42:45.678Z,18.27
2023-05-26T06:45:18.576Z,18.27
2023-05-26T06:47:51.112Z,18.27
2023-05-26T06:50:23.853Z,18.28
2023-05-26T06:52:56.472Z,18.30
2023-05-26T06:55:29.030Z,18.31
2023-05-26T06:58:01.581Z,18.31
2023-05-26T07:00:34.005Z,18.33
2023-05-26T07:03:06.533Z,18.32
2023-05-26T07:05:45.045Z,18.31
2023-05-26T07:08:25.252Z,18.32
2023-05-26T07:10:57.854Z,18.32
2023-05-26T07:13:32.613Z,18.33
2023-05-26T07:16:05.584Z,18.34
2023-05-26T07:18:38.037Z,18.35
2023-05-26T07:21:10.742Z,18.36
2023-05-26T07:23:52.518Z,18.36
2023-05-26T07:26:25.301Z,18.36
2023-05-26T07:28:58.825Z,18.37
2023-05-26T07:31:31.657Z,18.37
2023-05-26T07:34:04.339Z,18.37
2023-05-26T07:36:37.069Z,18.39
2023-05-26T07:39:09.730Z,18.38
2023-05-26T07:41:42.787Z,18.40
2023-05-26T07:44:15.390Z,18.41
2023-05-26T07:46:52.550Z,18.42
2023-05-26T07:49:34.099Z,18.43
2023-05-26T07:52:06.851Z,18.43
2023-05-26T07:54:55.647Z,18.45
2023-05-26T07:57:36.087Z,18.46
2023-05-26T08:00:09.120Z,18.46
2023-05-26T08:02:43.273Z,18.50
2023-05-26T08:05:20.520Z,18.50
2023-05-26T08:07:58.941Z,18.50
2023-05-26T08:10:43.622Z,18.53
2023-05-26T08:13:31.275Z,18.53
2023-05-26T08:16:03.922Z,18.55
2023-05-26T08:18:45.566Z,18.56
2023-05-26T08:21:18.311Z,18.58
2023-05-26T08:26:37.338Z,18.60
2023-05-26T08:29:28.405Z,18.62
2023-05-26T08:32:01.731Z,18.63
2023-05-26T08:34:37.654Z,18.65
2023-05-26T08:37:24.535Z,18.66
2023-05-26T08:40:10.996Z,18.67
2023-05-26T08:42:47.609Z,18.68
2023-05-26T08:45:20.759Z,18.70
2023-05-26T08:47:58.052Z,18.71
2023-05-26T08:50:38.620Z,18.72
2023-05-26T08:53:12.383Z,18.74
2023-05-26T08:55:45.226Z,18.75
2023-05-26T08:58:18.037Z,18.76
2023-05-26T09:00:50.958Z,18.76
2023-05-26T09:03:23.871Z,18.78
2023-05-26T09:06:01.413Z,18.80
2023-05-26T09:08:33.953Z,18.82
2023-05-26T09:11:53.810Z,18.82
2023-05-26T09:14:40.039Z,18.84
2023-05-26T09:17:18.749Z,18.86
2023-05-26T09:19:58.435Z,18.87
2023-05-26T09:22:36.234Z,18.88
2023-05-26T09:25:18.442Z,18.90
2023-05-26T09:27:51.021Z,18.90
2023-05-26T09:30:29.667Z,18.91
2023-05-26T09:33:02.197Z,18.92
2023-05-26T09:35:59.345Z,18.93
2023-05-26T09:38:32.712Z,18.97
2023-05-26T09:41:05.360Z,18.99
2023-05-26T09:43:38.300Z,19.01
2023-05-26T09:46:26.682Z,19.02
2023-05-26T09:49:10.728Z,19.04
2023-05-26T09:52:10.531Z,19.06
2023-05-26T09:54:46.023Z,19.08
2023-05-26T09:57:26.471Z,19.09
2023-05-26T10:05:48.293Z,19.14
2023-05-26T10:08:23.628Z,19.17
2023-05-26T10:11:00.788Z,19.03
2023-05-26T10:13:52.816Z,19.20
2023-05-26T10:16:27.572Z,19.22
2023-05-26T10:19:00.682Z,19.25
2023-05-26T10:22:03.507Z,19.25
2023-05-26T10:24:59.017Z,19.28
2023-05-26T10:28:12.554Z,19.30
2023-05-26T10:31:09.655Z,19.31
2023-05-26T10:33:51.909Z,19.33
2023-05-26T10:36:24.768Z,19.38
2023-05-26T10:39:13.269Z,19.39
2023-05-26T10:41:55.825Z,19.42
2023-05-26T10:44:53.086Z,19.45
2023-05-26T10:47:32.072Z,19.47
2023-05-26T10:50:05.277Z,19.47
2023-05-26T10:52:48.650Z,19.50
2023-05-26T10:55:32.468Z,19.52
2023-05-26T10:58:29.738Z,19.55
2023-05-26T11:01:14.289Z,19.57
2023-05-26T11:03:48.530Z,19.58
2023-05-26T11:06:55.420Z,19.60
2023-05-26T11:09:29.186Z,19.63
2023-05-26T11:12:06.206Z,19.65
2023-05-26T11:14:38.783Z,19.67
2023-05-26T11:17:13.205Z,19.69
2023-05-26T11:20:15.808Z,19.71
2023-05-26T11:22:58.381Z,19.74
2023-05-26T11:25:31.078Z,19.76
2023-05-26T11:28:20.133Z,19.78
2023-05-26T11:30:56.921Z,19.81
2023-05-26T11:33:30.627Z,19.82
2023-05-26T11:36:18.229Z,19.85
2023-05-26T11:39:11.331Z,19.86
2023-05-26T11:41:43.900Z,19.88
2023-05-26T11:44:32.425Z,19.92
2023-05-26T11:47:26.933Z,19.93
2023-05-26T11:50:16.152Z,19.95
2023-05-26T11:53:08.935Z,19.98
2023-05-26T11:55:46.558Z,20.00
2023-05-26T11:58:26.898Z,20.03
2023-05-26T12:01:09.494Z,20.05
2023-05-26T12:03:50.503Z,20.07
2023-05-26T12:06:24.573Z,20.09
2023-05-26T12:08:58.669Z,20.10
2023-05-26T12:11:52.951Z,20.13
2023-05-26T12:14:25.628Z,20.16
2023-05-26T12:17:04.604Z,20.17
2023-05-26T12:19:37.182Z,20.20
2023-05-26T12:22:14.715Z,20.21
2023-05-26T12:24:47.603Z,20.23
2023-05-26T12:30:49.253Z,20.27
2023-05-26T12:33:35.325Z,20.29
2023-05-26T12:36:07.979Z,20.32
2023-05-26T12:38:49.288Z,20.34
2023-05-26T12:41:21.903Z,20.36
2023-05-26T12:46:56.217Z,20.41
2023-05-26T12:49:28.731Z,20.43
2023-05-26T12:52:04.130Z,20.46
2023-05-26T12:54:36.639Z,20.48
2023-05-26T13:00:36.018Z,20.51
2023-05-26T13:03:11.256Z,20.54
2023-05-26T13:05:44.753Z,20.56
2023-05-26T13:08:20.335Z,20.58
2023-05-26T13:11:11.527Z,20.61
2023-05-26T13:13:56.334Z,20.61
2023-05-26T13:16:40.939Z,20.64
2023-05-26T13:19:25.469Z,20.66
2023-05-26T13:21:58.088Z,20.68
2023-05-26T13:24:30.575Z,20.70
2023-05-26T13:27:03.734Z,20.71
2023-05-26T13:29:39.205Z,20.73
2023-05-26T13:32:11.862Z,20.75
2023-05-26T13:34:44.550Z,20.75
2023-05-26T13:37:17.132Z,20.77
2023-05-26T13:39:49.621Z,20.78
2023-05-26T13:42:25.401Z,20.81
2023-05-26T13:44:57.907Z,20.82
2023-05-26T13:47:34.402Z,20.84
2023-05-26T13:52:52.994Z,20.87
2023-05-26T13:55:25.995Z,20.89
2023-05-26T13:58:01.120Z,20.90
2023-05-26T14:03:22.865Z,20.92
2023-05-26T14:05:55.453Z,20.95
2023-05-26T14:08:31.334Z,20.95
2023-05-26T14:11:14.357Z,20.98
2023-05-26T14:13:46.951Z,21.00
2023-05-26T14:16:22.269Z,21.00
2023-05-26T14:19:06.893Z,21.02
2023-05-26T14:22:07.438Z,21.04
2023-05-26T14:24:40.919Z,21.05
2023-05-26T14:27:25.967Z,21.07
2023-05-26T14:30:00.028Z,21.08
2023-05-26T14:32:55.812Z,21.09
2023-05-26T14:35:29.349Z,21.10
2023-05-26T14:38:11.166Z,21.10
2023-05-26T14:40:48.563Z,21.11
2023-05-26T14:46:52.506Z,21.13
2023-05-26T14:49:57.758Z,21.14
2023-05-26T14:52:37.118Z,21.16
2023-05-26T14:55:21.307Z,21.16
2023-05-26T14:57:53.948Z,21.18
2023-05-26T15:00:26.695Z,21.16
2023-05-26T15:03:13.644Z,21.16
2023-05-26T15:05:49.566Z,21.14
2023-05-26T15:13:16.015Z,21.13
2023-05-26T15:19:37.979Z,21.11
2023-05-26T15:23:01.651Z,21.11
2023-05-26T15:26:00.402Z,21.10
2023-05-26T15:28:33.298Z,21.09
2023-05-26T15:31:31.424Z,21.10
2023-05-26T15:34:04.581Z,21.09
2023-05-26T15:36:37.617Z,21.10
2023-05-26T15:39:10.222Z,21.09
2023-05-26T15:41:46.145Z,21.09
2023-05-26T15:44:28.118Z,21.09
2023-05-26T15:47:00.772Z,21.09
2023-05-26T15:50:40.327Z,21.09
2023-05-26T15:53:12.860Z,21.10
2023-05-26T15:55:47.648Z,21.10
2023-05-26T15:58:20.290Z,21.10
2023-05-26T16:01:00.063Z,21.10
2023-05-26T16:03:32.626Z,21.11
2023-05-26T16:06:14.516Z,21.10
2023-05-26T16:08:47.850Z,21.10
2023-05-26T16:11:22.885Z,21.11
2023-05-26T16:13:55.517Z,21.11
2023-05-26T16:16:40.106Z,21.10
2023-05-26T16:19:13.039Z,21.11
2023-05-26T16:21:45.827Z,21.11
2023-05-26T16:24:30.411Z,21.11
2023-05-26T16:27:12.814Z,21.12
2023-05-26T16:29:49.348Z,21.12
2023-05-26T16:32:27.783Z,21.12
2023-05-26T16:35:02.440Z,21.14
2023-05-26T16:37:41.075Z,21.13
2023-05-26T16:40:43.032Z,21.13
2023-05-26T16:43:27.410Z,21.13
2023-05-26T16:46:13.216Z,21.12
2023-05-26T16:48:45.798Z,21.12
2023-05-26T16:51:24.633Z,21.12
2023-05-26T16:53:57.202Z,21.12
2023-05-26T16:56:29.763Z,21.12
2023-05-26T16:59:17.417Z,21.12
2023-05-26T17:01:50.077Z,21.11
2023-05-26T17:04:22.885Z,21.13
2023-05-26T17:07:13.904Z,21.12
2023-05-26T17:10:42.670Z,21.12
2023-05-26T17:13:08.437Z,21.11
2023-05-26T17:15:44.881Z,21.12
2023-05-26T17:18:17.602Z,21.12
2023-05-26T17:21:21.088Z,21.11
2023-05-26T17:23:53.820Z,21.10
2023-05-26T17:26:38.112Z,21.11
2023-05-26T17:29:20.853Z,21.09
2023-05-26T17:31:55.850Z,21.09
2023-05-26T17:34:31.545Z,21.09
2023-05-26T17:37:14.898Z,21.08
2023-05-26T17:39:55.844Z,21.08
2023-05-26T17:42:31.667Z,21.08
2023-05-26T17:45:17.574Z,21.08
2023-05-26T17:48:10.389Z,21.07
2023-05-26T17:50:49.386Z,21.08
2023-05-26T17:53:44.028Z,21.08
2023-05-26T17:56:26.294Z,21.08
2023-05-26T18:02:26.581Z,21.08
2023-05-26T18:11:36.374Z,21.06
2023-05-26T18:14:25.528Z,21.06
2023-05-26T18:17:10.088Z,21.06
2023-05-26T18:19:48.706Z,21.04
2023-05-26T18:22:22.423Z,21.04
2023-05-26T18:24:55.506Z,21.03
2023-05-26T18:30:23.733Z,21.03
2023-05-26T18:33:12.339Z,21.02
2023-05-26T18:35:51.096Z,21.03
2023-05-26T18:38:23.653Z,21.01
2023-05-26T18:40:56.237Z,20.98
2023-05-26T18:43:29.200Z,20.98
2023-05-26T18:46:10.083Z,20.97
2023-05-26T18:48:42.947Z,20.95
2023-05-26T18:51:24.980Z,20.97
2023-05-26T18:53:57.681Z,20.95
2023-05-26T18:56:45.519Z,20.95
2023-05-26T18:59:18.158Z,20.94
2023-05-26T19:01:50.812Z,20.94
2023-05-26T19:04:24.369Z,20.93
2023-05-26T19:07:00.185Z,20.92
2023-05-26T19:09:33.152Z,20.91
2023-05-26T19:12:08.878Z,20.92
2023-05-26T19:14:52.991Z,20.89
2023-05-26T19:17:25.648Z,20.89
2023-05-26T19:19:58.355Z,20.89
2023-05-26T19:22:30.937Z,20.88
2023-05-26T19:25:04.373Z,20.88
2023-05-26T19:27:55.273Z,20.86
2023-05-26T19:30:28.154Z,20.85
2023-05-26T19:33:00.658Z,20.85
2023-05-26T19:35:33.298Z,20.78
2023-05-26T19:38:05.970Z,20.83
2023-05-26T19:40:41.064Z,20.82
2023-05-26T19:43:22.826Z,20.81
2023-05-26T19:45:56.533Z,20.80
2023-05-26T19:48:29.312Z,20.79
2023-05-26T19:51:07.967Z,20.78
2023-05-26T19:53:40.580Z,20.77
2023-05-26T19:56:13.276Z,20.76
2023-05-26T19:58:45.852Z,20.76
2023-05-26T20:01:28.740Z,20.73
2023-05-26T20:04:01.430Z,20.72
2023-05-26T20:06:38.795Z,20.71
2023-05-26T20:09:11.665Z,20.69
2023-05-26T20:11:44.464Z,20.69
2023-05-26T20:14:17.065Z,20.68
2023-05-26T20:16:55.816Z,20.68
2023-05-26T20:19:47.254Z,20.66
2023-05-26T20:22:24.977Z,20.65
2023-05-26T20:25:07.635Z,20.64
2023-05-26T20:27:41.303Z,20.62
2023-05-26T20:30:14.022Z,20.61
2023-05-26T20:32:46.640Z,20.60
2023-05-26T20:35:25.242Z,20.60
2023-05-26T20:37:58.792Z,20.58
2023-05-26T20:40:41.112Z,20.57
2023-05-26T20:43:13.685Z,20.56
2023-05-26T20:46:46.180Z,20.54
2023-05-26T20:49:19.198Z,20.53
2023-05-26T20:52:04.145Z,20.52
2023-05-26T20:54:37.115Z,20.50
2023-05-26T20:57:26.114Z,20.49
2023-05-26T20:59:58.672Z,20.48
2023-05-26T21:02:44.120Z,20.47
2023-05-26T21:05:16.751Z,20.46
2023-05-26T21:07:51.900Z,20.45
2023-05-26T21:10:24.560Z,20.45
2023-05-26T21:12:58.288Z,20.44
2023-05-26T21:15:42.245Z,20.43
2023-05-26T21:18:17.117Z,20.41
2023-05-26T21:20:58.677Z,20.40
2023-05-26T21:23:31.396Z,20.39
2023-05-26T21:26:09.181Z,20.38
2023-05-26T21:28:41.786Z,20.37
2023-05-26T21:31:14.552Z,20.35
2023-05-26T21:33:53.779Z,20.35
2023-05-26T21:36:28.234Z,20.33
2023-05-26T21:39:00.856Z,20.32
2023-05-26T21:41:33.744Z,20.31
2023-05-26T21:44:06.381Z,20.31
2023-05-26T21:46:47.567Z,20.29
2023-05-26T21:49:27.721Z,20.28
2023-05-26T21:57:33.249Z,20.25
2023-05-26T22:00:13.396Z,20.23
2023-05-26T22:02:48.845Z,20.23
2023-05-26T22:05:30.517Z,20.22
2023-05-26T22:08:05.767Z,20.20
2023-05-26T22:10:52.893Z,20.17
2023-05-26T22:13:25.434Z,20.19
2023-05-26T22:16:06.772Z,20.17
2023-05-26T22:18:50.633Z,20.16
2023-05-26T22:23:57.224Z,20.13
2023-05-26T22:26:32.947Z,20.12
2023-05-26T22:29:06.544Z,20.12
2023-05-26T22:31:39.228Z,20.11
2023-05-26T22:34:12.044Z,20.10
2023-05-26T22:37:02.152Z,20.08
2023-05-26T22:39:34.736Z,20.08
2023-05-26T22:42:08.427Z,20.05
2023-05-26T22:44:56.482Z,20.06
2023-05-26T22:47:29.149Z,20.04
2023-05-26T22:50:21.146Z,20.03
2023-05-26T22:52:53.857Z,20.03
2023-05-26T22:55:35.811Z,20.01
2023-05-26T22:58:16.723Z,19.99
2023-05-26T23:00:49.417Z,19.98
2023-05-26T23:03:22.102Z,19.96
2023-05-26T23:05:57.558Z,19.95
2023-05-26T23:08:30.205Z,19.94
2023-05-26T23:11:02.761Z,19.94
2023-05-26T23:13:39.148Z,19.93
2023-05-26T23:16:24.089Z,19.92
2023-05-26T23:19:05.568Z,19.91
2023-05-26T23:21:38.304Z,19.90
2023-05-26T23:24:27.066Z,19.88
2023-05-26T23:26:59.599Z,19.88
2023-05-26T23:29:32.365Z,19.85
2023-05-26T23:32:06.482Z,19.85
2023-05-26T23:34:39.108Z,19.84
2023-05-26T23:40:01.107Z,19.82
2023-05-26T23:42:34.082Z,19.81
2023-05-26T23:45:09.275Z,19.80
2023-05-26T23:47:41.998Z,19.79
2023-05-26T23:50:16.647Z,19.79
2023-05-26T23:53:04.638Z,19.76
2023-05-26T23:55:46.209Z,19.76
2023-05-26T23:58:31.229Z,19.75
